createdAt,value
2019-03-28T00:01:47.557Z,9.40
2019-03-28T00:06:51.773Z,9.40
2019-03-28T00:11:56.001Z,9.40
2019-03-28T00:17:00.304Z,9.40
2019-03-28T00:22:05.919Z,9.40
2019-03-28T00:27:10.451Z,9.40
2019-03-28T00:32:14.662Z,9.40
2019-03-28T00:37:18.876Z,9.40
2019-03-28T00:42:23.100Z,9.40
2019-03-28T00:47:27.341Z,9.40
2019-03-28T00:52:31.813Z,9.40
2019-03-28T00:57:36.030Z,9.40
2019-03-28T01:02:40.501Z,9.40
2019-03-28T01:07:44.809Z,9.40
2019-03-28T01:12:49.037Z,9.40
2019-03-28T01:17:53.252Z,9.40
2019-03-28T01:22:57.483Z,9.40
2019-03-28T01:28:01.707Z,9.40
2019-03-28T01:33:05.933Z,9.40
2019-03-28T01:38:10.141Z,9.40
2019-03-28T01:43:14.359Z,9.40
2019-03-28T01:48:18.598Z,9.40
2019-03-28T01:53:22.876Z,9.40
2019-03-28T01:58:27.124Z,9.40
2019-03-28T02:03:31.341Z,9.40
2019-03-28T02:08:35.554Z,9.40
2019-03-28T02:13:39.764Z,9.40
2019-03-28T02:18:43.985Z,9.30
2019-03-28T02:23:48.197Z,9.40
2019-03-28T02:28:52.449Z,9.30
2019-03-28T02:33:56.662Z,9.30
2019-03-28T02:39:00.872Z,9.30
2019-03-28T02:44:05.286Z,9.30
2019-03-28T02:49:09.510Z,9.30
2019-03-28T02:54:13.868Z,9.30
2019-03-28T02:59:18.122Z,9.30
2019-03-28T03:04:22.557Z,9.30
2019-03-28T03:09:26.926Z,9.30
2019-03-28T03:14:31.151Z,9.30
2019-03-28T03:19:35.383Z,9.30
2019-03-28T03:24:39.600Z,9.30
2019-03-28T03:29:43.821Z,9.30
2019-03-28T03:34:48.073Z,9.30
2019-03-28T03:39:52.354Z,9.30
2019-03-28T03:44:56.615Z,9.40
2019-03-28T03:50:00.840Z,9.30
2019-03-28T03:55:05.321Z,9.30
2019-03-28T04:00:10.140Z,9.30
2019-03-28T04:05:14.358Z,9.30
2019-03-28T04:10:18.582Z,9.30
2019-03-28T04:15:22.795Z,9.30
2019-03-28T04:20:27.022Z,9.30
2019-03-28T04:25:31.541Z,9.30
2019-03-28T04:30:36.211Z,9.30
2019-03-28T04:35:40.444Z,9.30
2019-03-28T04:40:44.688Z,9.30
2019-03-28T04:45:48.929Z,9.30
2019-03-28T04:50:53.178Z,9.30
2019-03-28T04:55:57.395Z,9.30
2019-03-28T05:01:01.711Z,9.30
2019-03-28T05:06:06.030Z,9.30
2019-03-28T05:11:10.257Z,9.30
2019-03-28T05:16:14.494Z,9.30
2019-03-28T05:21:18.798Z,9.20
2019-03-28T05:26:23.024Z,9.20
2019-03-28T05:31:27.232Z,9.20
2019-03-28T05:36:31.458Z,9.30
2019-03-28T05:41:35.787Z,9.20
2019-03-28T05:46:40.198Z,9.30
2019-03-28T05:51:44.409Z,9.30
2019-03-28T05:56:48.627Z,9.30
2019-03-28T06:01:52.859Z,9.30
2019-03-28T06:06:57.093Z,9.30
2019-03-28T06:12:01.317Z,9.30
2019-03-28T06:17:05.806Z,9.30
2019-03-28T06:22:10.297Z,9.30
2019-03-28T06:27:14.524Z,9.30
2019-03-28T06:32:18.790Z,9.40
2019-03-28T06:37:23.179Z,9.40
2019-03-28T06:42:27.522Z,9.40
2019-03-28T06:47:31.747Z,9.40
2019-03-28T06:52:36.271Z,9.40
2019-03-28T06:57:40.491Z,9.40
2019-03-28T07:02:44.751Z,9.50
2019-03-28T07:07:49.004Z,9.50
2019-03-28T07:12:53.526Z,9.60
2019-03-28T07:17:57.749Z,9.60
2019-03-28T07:23:03.299Z,9.70
2019-03-28T07:28:08.193Z,9.70
2019-03-28T07:33:12.996Z,9.80
2019-03-28T07:38:17.360Z,9.80
2019-03-28T07:43:21.635Z,9.90
2019-03-28T07:48:27.163Z,9.90
2019-03-28T07:53:31.452Z,10.00
2019-03-28T07:58:35.715Z,10.00
2019-03-28T08:03:40.136Z,10.00
2019-03-28T08:08:44.445Z,10.10
2019-03-28T08:13:48.731Z,10.10
2019-03-28T08:18:52.960Z,10.10
2019-03-28T08:23:57.225Z,10.20
2019-03-28T08:29:01.551Z,10.20
2019-03-28T08:34:05.942Z,10.20
2019-03-28T08:39:10.303Z,10.20
2019-03-28T08:44:14.616Z,10.20
2019-03-28T08:49:20.862Z,10.20
2019-03-28T08:54:25.004Z,10.20
2019-03-28T08:59:29.347Z,10.20
2019-03-28T09:04:33.642Z,10.20
2019-03-28T09:09:38.064Z,10.30
2019-03-28T09:14:53.543Z,10.30
2019-03-28T09:19:57.794Z,10.40
2019-03-28T09:25:04.655Z,10.40
2019-03-28T09:30:10.388Z,10.50
2019-03-28T09:35:18.911Z,10.60
2019-03-28T09:40:23.210Z,10.60
2019-03-28T09:45:27.559Z,10.60
2019-03-28T09:50:31.993Z,10.70
2019-03-28T09:55:36.441Z,10.70
2019-03-28T10:00:40.927Z,10.70
2019-03-28T10:05:45.147Z,10.70
2019-03-28T10:10:49.390Z,10.60
2019-03-28T10:15:56.100Z,10.60
2019-03-28T10:21:02.374Z,10.60
2019-03-28T10:26:06.639Z,10.70
2019-03-28T10:31:16.686Z,10.70
2019-03-28T10:36:17.011Z,10.70
2019-03-28T10:41:21.273Z,10.80
2019-03-28T10:46:25.606Z,10.80
2019-03-28T10:51:31.022Z,10.90
2019-03-28T10:56:35.271Z,10.90
2019-03-28T11:01:49.199Z,10.90
2019-03-28T11:06:45.587Z,10.90
2019-03-28T11:11:49.878Z,10.80
2019-03-28T11:16:54.122Z,10.90
2019-03-28T11:21:58.599Z,10.90
2019-03-28T11:27:03.996Z,10.90
2019-03-28T11:32:08.295Z,10.90
2019-03-28T11:37:25.418Z,11.00
2019-03-28T11:42:18.564Z,11.00
2019-03-28T11:47:23.895Z,11.00
2019-03-28T11:52:28.291Z,11.10
2019-03-28T11:57:32.512Z,11.10
2019-03-28T12:02:36.759Z,11.10
2019-03-28T12:07:40.975Z,11.10
2019-03-28T12:12:45.243Z,11.00
2019-03-28T12:17:49.476Z,11.00
2019-03-28T12:22:56.122Z,11.10
2019-03-28T12:28:00.482Z,11.10
2019-03-28T12:33:04.980Z,11.10
2019-03-28T12:38:09.199Z,11.20
2019-03-28T12:43:13.441Z,11.30
2019-03-28T12:48:17.958Z,11.30
2019-03-28T12:53:25.439Z,11.30
2019-03-28T12:58:29.744Z,11.30
2019-03-28T13:03:44.741Z,11.30
2019-03-28T13:08:40.017Z,11.40
2019-03-28T13:13:44.268Z,11.40
2019-03-28T13:18:48.742Z,11.40
2019-03-28T13:23:52.987Z,11.40
2019-03-28T13:28:57.526Z,11.40
2019-03-28T13:34:01.792Z,11.50
2019-03-28T13:39:11.915Z,11.50
2019-03-28T13:44:16.156Z,11.50
2019-03-28T13:49:20.398Z,11.50
2019-03-28T13:54:24.633Z,11.50
2019-03-28T13:59:28.859Z,11.60
2019-03-28T14:04:33.099Z,11.60
2019-03-28T14:09:37.424Z,11.50
2019-03-28T14:14:41.999Z,11.50
2019-03-28T14:19:46.292Z,11.50
2019-03-28T14:24:50.516Z,11.50
2019-03-28T14:29:54.754Z,11.50
2019-03-28T14:34:58.960Z,11.50
2019-03-28T14:40:03.179Z,11.50
2019-03-28T14:45:07.764Z,11.50
2019-03-28T14:50:12.687Z,11.50
2019-03-28T14:55:16.981Z,11.50
2019-03-28T15:00:42.774Z,11.50
2019-03-28T15:05:47.205Z,11.50
2019-03-28T15:10:51.649Z,11.50
2019-03-28T15:15:55.872Z,11.50
2019-03-28T15:27:48.061Z,11.40
2019-03-28T15:32:52.638Z,11.40
2019-03-28T15:37:56.942Z,11.30
2019-03-28T15:43:02.089Z,11.20
2019-03-28T15:48:06.339Z,11.20
2019-03-28T15:53:10.569Z,11.10
2019-03-28T15:58:22.991Z,11.00
2019-03-28T16:03:22.334Z,10.90
2019-03-28T16:08:33.580Z,10.90
2019-03-28T16:13:37.994Z,10.90
2019-03-28T16:18:42.220Z,10.80
2019-03-28T16:23:46.473Z,10.80
2019-03-28T16:28:50.713Z,10.70
2019-03-28T16:34:06.069Z,10.60
2019-03-28T16:39:02.622Z,10.60
2019-03-28T16:44:07.135Z,10.60
2019-03-28T16:49:11.389Z,10.60
2019-03-28T16:54:15.740Z,10.50
2019-03-28T16:59:20.026Z,10.50
2019-03-28T17:04:24.283Z,10.40
2019-03-28T17:09:28.884Z,10.40
2019-03-28T17:14:33.126Z,10.40
2019-03-28T17:19:42.435Z,10.30
2019-03-28T17:24:45.382Z,10.30
2019-03-28T17:29:50.315Z,10.30
2019-03-28T17:34:54.988Z,10.20
2019-03-28T17:39:59.820Z,10.20
2019-03-28T17:45:04.191Z,10.20
2019-03-28T17:50:08.800Z,10.20
2019-03-28T17:55:13.189Z,10.20
2019-03-28T18:00:17.775Z,10.20
2019-03-28T18:05:22.095Z,10.20
2019-03-28T18:10:26.326Z,10.10
2019-03-28T18:15:30.573Z,10.10
2019-03-28T18:20:34.835Z,10.10
2019-03-28T18:25:39.137Z,10.10
2019-03-28T18:30:43.530Z,10.10
2019-03-28T18:35:47.882Z,10.10
2019-03-28T18:40:52.430Z,10.00
2019-03-28T18:45:56.668Z,10.00
2019-03-28T18:51:00.910Z,10.00
2019-03-28T18:56:05.259Z,10.00
2019-03-28T19:01:09.484Z,10.00
2019-03-28T19:06:15.059Z,10.00
2019-03-28T19:11:19.520Z,10.00
2019-03-28T19:16:26.574Z,10.00
2019-03-28T19:21:30.799Z,10.00
2019-03-28T19:26:35.033Z,10.00
2019-03-28T19:31:39.274Z,10.00
2019-03-28T19:36:44.992Z,10.00
2019-03-28T19:41:49.362Z,9.90
2019-03-28T19:46:53.618Z,10.00
2019-03-28T19:51:57.891Z,9.90
2019-03-28T19:57:02.588Z,9.90
2019-03-28T20:02:08.568Z,9.90
2019-03-28T20:07:21.653Z,9.90
2019-03-28T20:12:22.575Z,9.90
2019-03-28T20:17:27.158Z,9.90
2019-03-28T20:22:32.716Z,9.90
2019-03-28T20:27:37.611Z,9.90
2019-03-28T20:32:42.466Z,9.90
2019-03-28T20:37:46.917Z,9.90
2019-03-28T20:42:51.951Z,9.90
2019-03-28T20:47:56.869Z,9.90
2019-03-28T20:53:01.885Z,9.90
2019-03-28T20:58:06.907Z,9.90
2019-03-28T21:03:15.712Z,9.90
2019-03-28T21:08:20.415Z,9.80
2019-03-28T21:13:25.240Z,9.80
2019-03-28T21:18:30.254Z,9.80
2019-03-28T21:23:34.581Z,9.80
2019-03-28T21:28:47.147Z,9.80
2019-03-28T21:33:45.494Z,9.80
2019-03-28T21:38:49.806Z,9.80
2019-03-28T21:43:54.036Z,9.80
2019-03-28T21:48:58.451Z,9.80
2019-03-28T21:54:05.014Z,9.80
2019-03-28T21:59:08.640Z,9.80
2019-03-28T22:04:12.864Z,9.80
2019-03-28T22:09:17.097Z,9.80
2019-03-28T22:14:21.318Z,9.80
2019-03-28T22:19:26.076Z,9.80
2019-03-28T22:24:30.897Z,9.80
2019-03-28T22:29:35.119Z,9.80
2019-03-28T22:34:39.346Z,9.70
2019-03-28T22:39:43.562Z,9.70
2019-03-28T22:44:48.048Z,9.70
2019-03-28T22:49:52.287Z,9.80
2019-03-28T22:54:56.775Z,9.70
2019-03-28T23:00:04.137Z,9.70
2019-03-28T23:05:07.970Z,9.70
2019-03-28T23:10:12.671Z,9.70
2019-03-28T23:15:17.045Z,9.70
2019-03-28T23:20:21.350Z,9.70
2019-03-28T23:25:25.569Z,9.70
2019-03-28T23:30:29.803Z,9.70
2019-03-28T23:35:34.033Z,9.70
2019-03-28T23:40:38.272Z,9.70
2019-03-28T23:45:42.524Z,9.70
2019-03-28T23:50:47.017Z,9.70
2019-03-28T23:55:51.410Z,9.70
